aviador You're here:

LFBO Decoded Metar

TOULOUSE BLAGNAC in FRANCE
Report Time2018-02-20 13:30:00
UTC Time2018-02-20 13:52:23
Flight Rules mvfr MVFR
Wind290° at 16 kt
W.Decomp.*RWY 32: 13.9 kt HW 8 kt LCW
W.Rank290° ranks 3
Current wind is above 290° avg. (8.8)
Visibility9999 m
Phenomena:Light Rain
Clouds:Overcast 012 Hf
Expected CloudBase > 800 ft AGL from Temp-Dew spread
Ceiling1,200 ft
Temp10°C (ISA -4)
Dew Point08°C (88% RH)
AAT3.8°C
QNH1015 hPa
Density Alt102 ft
Elevation502 ft
Report Wrong Elevation
Raw Report
LFBO 201330Z AUTO 29016KT 9999 OVC012 10/08 Q1015 TEMPO 30015G25KT
4000 -RA BKN009=

Extra information for LFBO:More info

Metar Taf Metar & Taf Last 4 Metars F.Rules Stats Wind Profile Meteogram Temp Stats Airport Information Weather charts Add Link Nearby VenuesMetar ALERT Operation Metar Decoded Social comments